sensor_id;sensor_type;location;lat;lon;timestamp;P1;durP1;ratioP1;P2;durP2;ratioP2
18999;SDS011;9633;50.980;13.850;2022-08-06T00:00:11;4.03;;;3.70;;
18999;SDS011;9633;50.980;13.850;2022-08-06T00:01:45;5.47;;;3.63;;
18999;SDS011;9633;50.980;13.850;2022-08-06T00:03:17;4.73;;;4.33;;
18999;SDS011;9633;50.980;13.850;2022-08-06T00:04:52;4.43;;;4.00;;
18999;SDS011;9633;50.980;13.850;2022-08-06T00:06:27;6.17;;;4.20;;
18999;SDS011;9633;50.980;13.850;2022-08-06T00:08:01;6.07;;;4.17;;
18999;SDS011;9633;50.980;13.850;2022-08-06T00:09:38;4.63;;;3.80;;
18999;SDS011;9633;50.980;13.850;2022-08-06T00:11:30;4.20;;;3.70;;
18999;SDS011;9633;50.980;13.850;2022-08-06T00:13:04;4.47;;;3.90;;
18999;SDS011;9633;50.980;13.850;2022-08-06T00:14:45;4.00;;;3.60;;
18999;SDS011;9633;50.980;13.850;2022-08-06T00:16:18;4.87;;;3.97;;
18999;SDS011;9633;50.980;13.850;2022-08-06T00:18:02;5.90;;;3.50;;
18999;SDS011;9633;50.980;13.850;2022-08-06T00:19:35;5.40;;;3.60;;
18999;SDS011;9633;50.980;13.850;2022-08-06T00:21:29;6.43;;;3.60;;
18999;SDS011;9633;50.980;13.850;2022-08-06T00:23:12;4.37;;;3.83;;
18999;SDS011;9633;50.980;13.850;2022-08-06T00:24:49;7.57;;;4.23;;
18999;SDS011;9633;50.980;13.850;2022-08-06T00:26:22;4.40;;;3.97;;
18999;SDS011;9633;50.980;13.850;2022-08-06T00:27:59;5.27;;;3.83;;
18999;SDS011;9633;50.980;13.850;2022-08-06T00:29:40;5.60;;;3.60;;
18999;SDS011;9633;50.980;13.850;2022-08-06T00:31:21;5.33;;;3.77;;
18999;SDS011;9633;50.980;13.850;2022-08-06T00:33:00;4.67;;;4.00;;
18999;SDS011;9633;50.980;13.850;2022-08-06T00:34:34;5.43;;;4.00;;
18999;SDS011;9633;50.980;13.850;2022-08-06T00:36:10;6.03;;;3.73;;
18999;SDS011;9633;50.980;13.850;2022-08-06T00:37:43;3.90;;;3.60;;
18999;SDS011;9633;50.980;13.850;2022-08-06T00:39:28;4.37;;;3.50;;
18999;SDS011;9633;50.980;13.850;2022-08-06T00:41:05;5.53;;;3.80;;
18999;SDS011;9633;50.980;13.850;2022-08-06T00:42:38;6.77;;;3.73;;
18999;SDS011;9633;50.980;13.850;2022-08-06T00:44:13;4.37;;;3.70;;
18999;SDS011;9633;50.980;13.850;2022-08-06T00:46:01;5.70;;;3.73;;
18999;SDS011;9633;50.980;13.850;2022-08-06T00:47:35;5.33;;;4.27;;
18999;SDS011;9633;50.980;13.850;2022-08-06T00:49:28;4.47;;;4.07;;
18999;SDS011;9633;50.980;13.850;2022-08-06T00:51:20;5.20;;;4.70;;
18999;SDS011;9633;50.980;13.850;2022-08-06T00:53:02;7.00;;;4.80;;
18999;SDS011;9633;50.980;13.850;2022-08-06T00:54:36;5.87;;;5.17;;
18999;SDS011;9633;50.980;13.850;2022-08-06T00:56:11;5.50;;;5.00;;
18999;SDS011;9633;50.980;13.850;2022-08-06T00:57:45;5.93;;;5.33;;
18999;SDS011;9633;50.980;13.850;2022-08-06T00:59:19;7.53;;;5.40;;
18999;SDS011;9633;50.980;13.850;2022-08-06T01:00:52;6.43;;;5.50;;
18999;SDS011;9633;50.980;13.850;2022-08-06T01:02:29;6.73;;;5.10;;
18999;SDS011;9633;50.980;13.850;2022-08-06T01:04:03;5.23;;;4.60;;
18999;SDS011;9633;50.980;13.850;2022-08-06T01:05:37;5.47;;;4.97;;
18999;SDS011;9633;50.980;13.850;2022-08-06T01:07:30;5.17;;;4.73;;
18999;SDS011;9633;50.980;13.850;2022-08-06T01:09:23;6.67;;;5.10;;
18999;SDS011;9633;50.980;13.850;2022-08-06T01:10:56;5.93;;;4.97;;
18999;SDS011;9633;50.980;13.850;2022-08-06T01:12:31;6.03;;;5.53;;
18999;SDS011;9633;50.980;13.850;2022-08-06T01:14:06;6.10;;;5.50;;
18999;SDS011;9633;50.980;13.850;2022-08-06T01:15:41;5.83;;;5.23;;
18999;SDS011;9633;50.980;13.850;2022-08-06T01:17:39;5.77;;;5.20;;
18999;SDS011;9633;50.980;13.850;2022-08-06T01:19:30;6.00;;;5.00;;
18999;SDS011;9633;50.980;13.850;2022-08-06T01:21:51;5.90;;;4.90;;
18999;SDS011;9633;50.980;13.850;2022-08-06T01:24:10;6.27;;;5.10;;
18999;SDS011;9633;50.980;13.850;2022-08-06T01:26:02;6.37;;;5.43;;
18999;SDS011;9633;50.980;13.850;2022-08-06T01:27:58;7.00;;;5.20;;
18999;SDS011;9633;50.980;13.850;2022-08-06T01:29:37;6.40;;;5.27;;
18999;SDS011;9633;50.980;13.850;2022-08-06T01:31:13;6.13;;;5.53;;
18999;SDS011;9633;50.980;13.850;2022-08-06T01:32:51;6.43;;;5.67;;
18999;SDS011;9633;50.980;13.850;2022-08-06T01:34:30;8.17;;;6.10;;
18999;SDS011;9633;50.980;13.850;2022-08-06T01:36:09;6.60;;;5.87;;
18999;SDS011;9633;50.980;13.850;2022-08-06T01:37:50;6.93;;;5.73;;
18999;SDS011;9633;50.980;13.850;2022-08-06T01:39:31;6.70;;;6.10;;
18999;SDS011;9633;50.980;13.850;2022-08-06T01:41:34;8.17;;;7.17;;
18999;SDS011;9633;50.980;13.850;2022-08-06T01:43:31;9.17;;;7.03;;
18999;SDS011;9633;50.980;13.850;2022-08-06T01:45:28;9.93;;;8.10;;
18999;SDS011;9633;50.980;13.850;2022-08-06T01:47:24;8.37;;;7.57;;
18999;SDS011;9633;50.980;13.850;2022-08-06T01:49:22;7.90;;;7.17;;
18999;SDS011;9633;50.980;13.850;2022-08-06T01:51:17;8.93;;;7.93;;
18999;SDS011;9633;50.980;13.850;2022-08-06T01:53:11;8.37;;;7.43;;
18999;SDS011;9633;50.980;13.850;2022-08-06T01:55:09;8.23;;;7.17;;
18999;SDS011;9633;50.980;13.850;2022-08-06T01:56:50;9.70;;;6.80;;
18999;SDS011;9633;50.980;13.850;2022-08-06T01:58:29;7.70;;;7.00;;
18999;SDS011;9633;50.980;13.850;2022-08-06T02:00:06;8.10;;;7.30;;
18999;SDS011;9633;50.980;13.850;2022-08-06T02:01:42;7.87;;;7.03;;
18999;SDS011;9633;50.980;13.850;2022-08-06T02:03:26;8.47;;;6.70;;
18999;SDS011;9633;50.980;13.850;2022-08-06T02:05:20;10.47;;;6.67;;
18999;SDS011;9633;50.980;13.850;2022-08-06T02:07:02;7.73;;;6.57;;
18999;SDS011;9633;50.980;13.850;2022-08-06T02:09:00;8.77;;;6.47;;
18999;SDS011;9633;50.980;13.850;2022-08-06T02:10:55;7.83;;;6.57;;
18999;SDS011;9633;50.980;13.850;2022-08-06T02:12:50;9.20;;;6.63;;
18999;SDS011;9633;50.980;13.850;2022-08-06T02:14:25;7.83;;;6.53;;
18999;SDS011;9633;50.980;13.850;2022-08-06T02:16:00;8.10;;;7.17;;
18999;SDS011;9633;50.980;13.850;2022-08-06T02:17:43;6.87;;;6.17;;
18999;SDS011;9633;50.980;13.850;2022-08-06T02:19:36;7.27;;;6.57;;
18999;SDS011;9633;50.980;13.850;2022-08-06T02:21:32;7.30;;;6.60;;
18999;SDS011;9633;50.980;13.850;2022-08-06T02:23:07;8.50;;;7.47;;
18999;SDS011;9633;50.980;13.850;2022-08-06T02:24:47;7.63;;;6.87;;
18999;SDS011;9633;50.980;13.850;2022-08-06T02:26:21;8.27;;;7.47;;
18999;SDS011;9633;50.980;13.850;2022-08-06T02:28:03;9.53;;;7.73;;
18999;SDS011;9633;50.980;13.850;2022-08-06T02:29:41;8.53;;;7.73;;
18999;SDS011;9633;50.980;13.850;2022-08-06T02:31:36;9.83;;;8.20;;
18999;SDS011;9633;50.980;13.850;2022-08-06T02:33:22;8.70;;;7.87;;
18999;SDS011;9633;50.980;13.850;2022-08-06T02:35:15;8.37;;;7.67;;
18999;SDS011;9633;50.980;13.850;2022-08-06T02:36:55;10.73;;;7.13;;
18999;SDS011;9633;50.980;13.850;2022-08-06T02:38:31;7.57;;;6.87;;
18999;SDS011;9633;50.980;13.850;2022-08-06T02:40:23;8.20;;;6.93;;
18999;SDS011;9633;50.980;13.850;2022-08-06T02:42:01;7.60;;;6.80;;
18999;SDS011;9633;50.980;13.850;2022-08-06T02:43:47;8.00;;;7.20;;
18999;SDS011;9633;50.980;13.850;2022-08-06T02:45:30;6.83;;;6.23;;
18999;SDS011;9633;50.980;13.850;2022-08-06T02:47:09;6.40;;;5.80;;
18999;SDS011;9633;50.980;13.850;2022-08-06T02:48:49;7.10;;;6.13;;
18999;SDS011;9633;50.980;13.850;2022-08-06T02:50:27;6.27;;;5.77;;
18999;SDS011;9633;50.980;13.850;2022-08-06T02:52:09;5.87;;;5.37;;
18999;SDS011;9633;50.980;13.850;2022-08-06T02:54:04;6.10;;;5.57;;
18999;SDS011;9633;50.980;13.850;2022-08-06T02:55:42;5.63;;;5.20;;
18999;SDS011;9633;50.980;13.850;2022-08-06T02:57:20;5.87;;;5.30;;
18999;SDS011;9633;50.980;13.850;2022-08-06T02:58:54;6.03;;;5.53;;
18999;SDS011;9633;50.980;13.850;2022-08-06T03:00:32;6.43;;;5.40;;
18999;SDS011;9633;50.980;13.850;2022-08-06T03:02:09;5.50;;;5.00;;
18999;SDS011;9633;50.980;13.850;2022-08-06T03:03:45;5.50;;;4.83;;
18999;SDS011;9633;50.980;13.850;2022-08-06T03:05:29;5.80;;;5.03;;
18999;SDS011;9633;50.980;13.850;2022-08-06T03:07:23;5.73;;;4.13;;
18999;SDS011;9633;50.980;13.850;2022-08-06T03:09:01;4.90;;;4.37;;
18999;SDS011;9633;50.980;13.850;2022-08-06T03:10:36;4.10;;;3.60;;
18999;SDS011;9633;50.980;13.850;2022-08-06T03:12:08;4.40;;;4.00;;
18999;SDS011;9633;50.980;13.850;2022-08-06T03:14:01;3.77;;;3.47;;
18999;SDS011;9633;50.980;13.850;2022-08-06T03:15:58;3.93;;;3.53;;
18999;SDS011;9633;50.980;13.850;2022-08-06T03:17:33;4.30;;;3.30;;
18999;SDS011;9633;50.980;13.850;2022-08-06T03:19:08;3.50;;;3.20;;
18999;SDS011;9633;50.980;13.850;2022-08-06T03:21:02;6.73;;;2.83;;
18999;SDS011;9633;50.980;13.850;2022-08-06T03:22:39;4.93;;;2.80;;
18999;SDS011;9633;50.980;13.850;2022-08-06T03:24:15;4.03;;;2.80;;
18999;SDS011;9633;50.980;13.850;2022-08-06T03:25:50;3.23;;;2.40;;
18999;SDS011;9633;50.980;13.850;2022-08-06T03:27:24;4.47;;;3.20;;
18999;SDS011;9633;50.980;13.850;2022-08-06T03:29:00;2.97;;;2.50;;
18999;SDS011;9633;50.980;13.850;2022-08-06T03:30:33;3.47;;;2.50;;
18999;SDS011;9633;50.980;13.850;2022-08-06T03:32:10;5.70;;;2.90;;
18999;SDS011;9633;50.980;13.850;2022-08-06T03:34:05;2.93;;;2.47;;
18999;SDS011;9633;50.980;13.850;2022-08-06T03:35:40;2.97;;;2.30;;
18999;SDS011;9633;50.980;13.850;2022-08-06T03:37:21;4.17;;;2.50;;
18999;SDS011;9633;50.980;13.850;2022-08-06T03:39:16;3.33;;;2.47;;
18999;SDS011;9633;50.980;13.850;2022-08-06T03:40:55;3.47;;;2.50;;
18999;SDS011;9633;50.980;13.850;2022-08-06T03:42:31;2.80;;;2.20;;
18999;SDS011;9633;50.980;13.850;2022-08-06T03:44:07;3.87;;;2.57;;
18999;SDS011;9633;50.980;13.850;2022-08-06T03:45:43;3.43;;;2.67;;
18999;SDS011;9633;50.980;13.850;2022-08-06T03:47:29;4.50;;;2.90;;
18999;SDS011;9633;50.980;13.850;2022-08-06T03:49:26;4.10;;;2.80;;
18999;SDS011;9633;50.980;13.850;2022-08-06T03:51:13;2.80;;;2.50;;
18999;SDS011;9633;50.980;13.850;2022-08-06T03:53:12;5.27;;;2.60;;
18999;SDS011;9633;50.980;13.850;2022-08-06T03:54:56;4.30;;;2.47;;
18999;SDS011;9633;50.980;13.850;2022-08-06T03:56:35;3.37;;;2.63;;
18999;SDS011;9633;50.980;13.850;2022-08-06T03:58:17;3.27;;;2.77;;
18999;SDS011;9633;50.980;13.850;2022-08-06T03:59:58;3.73;;;2.43;;
18999;SDS011;9633;50.980;13.850;2022-08-06T04:01:42;3.43;;;2.47;;
18999;SDS011;9633;50.980;13.850;2022-08-06T04:03:22;4.60;;;2.47;;
18999;SDS011;9633;50.980;13.850;2022-08-06T04:05:00;3.27;;;2.20;;
18999;SDS011;9633;50.980;13.850;2022-08-06T04:06:37;2.80;;;2.20;;
18999;SDS011;9633;50.980;13.850;2022-08-06T04:08:13;5.30;;;2.13;;
18999;SDS011;9633;50.980;13.850;2022-08-06T04:09:48;3.97;;;2.23;;
18999;SDS011;9633;50.980;13.850;2022-08-06T04:11:31;2.20;;;2.00;;
18999;SDS011;9633;50.980;13.850;2022-08-06T04:13:25;3.77;;;1.77;;
18999;SDS011;9633;50.980;13.850;2022-08-06T04:15:21;1.93;;;1.60;;
18999;SDS011;9633;50.980;13.850;2022-08-06T04:16:58;3.17;;;1.80;;
18999;SDS011;9633;50.980;13.850;2022-08-06T04:18:35;1.70;;;1.60;;
18999;SDS011;9633;50.980;13.850;2022-08-06T04:20:13;2.23;;;1.50;;
18999;SDS011;9633;50.980;13.850;2022-08-06T04:22:09;1.90;;;1.67;;
18999;SDS011;9633;50.980;13.850;2022-08-06T04:24:02;3.23;;;1.53;;
18999;SDS011;9633;50.980;13.850;2022-08-06T04:25:41;1.57;;;1.40;;
18999;SDS011;9633;50.980;13.850;2022-08-06T04:27:25;2.03;;;1.60;;
18999;SDS011;9633;50.980;13.850;2022-08-06T04:29:01;2.67;;;1.47;;
18999;SDS011;9633;50.980;13.850;2022-08-06T04:30:35;3.63;;;1.60;;
18999;SDS011;9633;50.980;13.850;2022-08-06T04:32:17;2.20;;;1.20;;
18999;SDS011;9633;50.980;13.850;2022-08-06T04:34:03;1.90;;;1.33;;
18999;SDS011;9633;50.980;13.850;2022-08-06T04:35:42;1.77;;;1.13;;
18999;SDS011;9633;50.980;13.850;2022-08-06T04:37:35;3.07;;;1.10;;
18999;SDS011;9633;50.980;13.850;2022-08-06T04:39:11;1.93;;;1.60;;
18999;SDS011;9633;50.980;13.850;2022-08-06T04:40:51;2.70;;;1.33;;
18999;SDS011;9633;50.980;13.850;2022-08-06T04:42:25;2.10;;;1.27;;
18999;SDS011;9633;50.980;13.850;2022-08-06T04:43:59;2.60;;;1.00;;
18999;SDS011;9633;50.980;13.850;2022-08-06T04:45:33;1.80;;;1.30;;
18999;SDS011;9633;50.980;13.850;2022-08-06T04:47:28;1.43;;;1.20;;
18999;SDS011;9633;50.980;13.850;2022-08-06T04:49:13;1.37;;;1.00;;
18999;SDS011;9633;50.980;13.850;2022-08-06T04:50:48;1.20;;;1.03;;
18999;SDS011;9633;50.980;13.850;2022-08-06T04:52:25;1.30;;;1.00;;
18999;SDS011;9633;50.980;13.850;2022-08-06T04:54:07;4.30;;;1.20;;
18999;SDS011;9633;50.980;13.850;2022-08-06T04:55:43;1.93;;;1.10;;
18999;SDS011;9633;50.980;13.850;2022-08-06T04:57:34;0.83;;;0.80;;
18999;SDS011;9633;50.980;13.850;2022-08-06T04:59:27;2.80;;;1.20;;
18999;SDS011;9633;50.980;13.850;2022-08-06T05:01:20;3.50;;;1.23;;
18999;SDS011;9633;50.980;13.850;2022-08-06T05:02:57;2.00;;;1.10;;
18999;SDS011;9633;50.980;13.850;2022-08-06T05:04:33;3.33;;;1.60;;
18999;SDS011;9633;50.980;13.850;2022-08-06T05:06:11;2.40;;;1.23;;
18999;SDS011;9633;50.980;13.850;2022-08-06T05:07:55;1.43;;;1.03;;
18999;SDS011;9633;50.980;13.850;2022-08-06T05:09:31;1.07;;;0.97;;
18999;SDS011;9633;50.980;13.850;2022-08-06T05:11:15;1.77;;;1.00;;
18999;SDS011;9633;50.980;13.850;2022-08-06T05:12:55;1.90;;;1.07;;
18999;SDS011;9633;50.980;13.850;2022-08-06T05:14:30;2.97;;;1.00;;
18999;SDS011;9633;50.980;13.850;2022-08-06T05:16:11;1.80;;;1.07;;
18999;SDS011;9633;50.980;13.850;2022-08-06T05:17:48;1.27;;;1.00;;
18999;SDS011;9633;50.980;13.850;2022-08-06T05:19:33;4.40;;;1.07;;
18999;SDS011;9633;50.980;13.850;2022-08-06T05:21:14;3.27;;;0.97;;
18999;SDS011;9633;50.980;13.850;2022-08-06T05:23:10;3.20;;;1.10;;
18999;SDS011;9633;50.980;13.850;2022-08-06T05:24:50;2.30;;;0.80;;
18999;SDS011;9633;50.980;13.850;2022-08-06T05:26:35;4.10;;;1.40;;
18999;SDS011;9633;50.980;13.850;2022-08-06T05:28:10;2.00;;;0.73;;
18999;SDS011;9633;50.980;13.850;2022-08-06T05:29:43;2.20;;;1.00;;
18999;SDS011;9633;50.980;13.850;2022-08-06T05:31:29;2.37;;;0.83;;
18999;SDS011;9633;50.980;13.850;2022-08-06T05:33:09;1.60;;;0.90;;
18999;SDS011;9633;50.980;13.850;2022-08-06T05:34:48;1.17;;;0.93;;
18999;SDS011;9633;50.980;13.850;2022-08-06T05:36:23;3.20;;;1.00;;
18999;SDS011;9633;50.980;13.850;2022-08-06T05:38:01;1.53;;;1.03;;
18999;SDS011;9633;50.980;13.850;2022-08-06T05:39:35;3.60;;;1.23;;
18999;SDS011;9633;50.980;13.850;2022-08-06T05:41:28;3.70;;;0.80;;
18999;SDS011;9633;50.980;13.850;2022-08-06T05:43:08;1.60;;;0.70;;
18999;SDS011;9633;50.980;13.850;2022-08-06T05:44:43;2.03;;;0.77;;
18999;SDS011;9633;50.980;13.850;2022-08-06T05:46:19;1.67;;;0.60;;
18999;SDS011;9633;50.980;13.850;2022-08-06T05:47:55;1.77;;;0.70;;
18999;SDS011;9633;50.980;13.850;2022-08-06T05:49:34;1.27;;;0.60;;
18999;SDS011;9633;50.980;13.850;2022-08-06T05:51:35;0.83;;;0.70;;
18999;SDS011;9633;50.980;13.850;2022-08-06T05:53:17;1.50;;;0.60;;
18999;SDS011;9633;50.980;13.850;2022-08-06T05:55:15;1.93;;;0.70;;
18999;SDS011;9633;50.980;13.850;2022-08-06T05:57:01;2.37;;;0.80;;
18999;SDS011;9633;50.980;13.850;2022-08-06T05:58:41;2.07;;;0.50;;
18999;SDS011;9633;50.980;13.850;2022-08-06T06:00:25;1.47;;;0.60;;
18999;SDS011;9633;50.980;13.850;2022-08-06T06:02:13;1.53;;;0.60;;
18999;SDS011;9633;50.980;13.850;2022-08-06T06:03:50;1.43;;;0.50;;
18999;SDS011;9633;50.980;13.850;2022-08-06T06:05:26;1.30;;;0.73;;
18999;SDS011;9633;50.980;13.850;2022-08-06T06:07:21;1.43;;;0.60;;
18999;SDS011;9633;50.980;13.850;2022-08-06T06:09:15;1.97;;;0.60;;
18999;SDS011;9633;50.980;13.850;2022-08-06T06:11:08;0.90;;;0.60;;
18999;SDS011;9633;50.980;13.850;2022-08-06T06:12:43;2.23;;;0.70;;
18999;SDS011;9633;50.980;13.850;2022-08-06T06:14:32;2.17;;;0.67;;
18999;SDS011;9633;50.980;13.850;2022-08-06T06:16:11;2.00;;;0.50;;
18999;SDS011;9633;50.980;13.850;2022-08-06T06:18:01;2.00;;;0.60;;
18999;SDS011;9633;50.980;13.850;2022-08-06T06:20:06;1.57;;;0.60;;
18999;SDS011;9633;50.980;13.850;2022-08-06T06:22:09;1.30;;;0.60;;
18999;SDS011;9633;50.980;13.850;2022-08-06T06:24:00;1.40;;;0.80;;
18999;SDS011;9633;50.980;13.850;2022-08-06T06:25:45;1.57;;;0.60;;
18999;SDS011;9633;50.980;13.850;2022-08-06T06:27:29;2.50;;;0.53;;
18999;SDS011;9633;50.980;13.850;2022-08-06T06:29:19;0.83;;;0.50;;
18999;SDS011;9633;50.980;13.850;2022-08-06T06:31:26;1.67;;;0.50;;
18999;SDS011;9633;50.980;13.850;2022-08-06T06:33:22;1.33;;;0.70;;
18999;SDS011;9633;50.980;13.850;2022-08-06T06:35:15;0.93;;;0.53;;
18999;SDS011;9633;50.980;13.850;2022-08-06T06:36:57;1.30;;;0.50;;
18999;SDS011;9633;50.980;13.850;2022-08-06T06:38:38;2.00;;;0.70;;
18999;SDS011;9633;50.980;13.850;2022-08-06T06:40:28;1.70;;;0.70;;
18999;SDS011;9633;50.980;13.850;2022-08-06T06:42:31;1.43;;;0.70;;
18999;SDS011;9633;50.980;13.850;2022-08-06T06:44:12;3.47;;;0.80;;
18999;SDS011;9633;50.980;13.850;2022-08-06T06:46:14;3.03;;;0.70;;
18999;SDS011;9633;50.980;13.850;2022-08-06T06:48:12;3.67;;;0.70;;
18999;SDS011;9633;50.980;13.850;2022-08-06T06:49:53;2.30;;;0.70;;
18999;SDS011;9633;50.980;13.850;2022-08-06T06:51:35;1.73;;;0.60;;
18999;SDS011;9633;50.980;13.850;2022-08-06T06:53:28;2.33;;;0.90;;
18999;SDS011;9633;50.980;13.850;2022-08-06T06:55:30;1.57;;;0.60;;
18999;SDS011;9633;50.980;13.850;2022-08-06T06:57:27;3.00;;;0.60;;
18999;SDS011;9633;50.980;13.850;2022-08-06T06:59:14;1.50;;;0.70;;
18999;SDS011;9633;50.980;13.850;2022-08-06T07:00:50;1.00;;;0.60;;
18999;SDS011;9633;50.980;13.850;2022-08-06T07:02:47;1.83;;;0.70;;
18999;SDS011;9633;50.980;13.850;2022-08-06T07:04:23;2.27;;;0.70;;
18999;SDS011;9633;50.980;13.850;2022-08-06T07:05:59;2.07;;;0.70;;
18999;SDS011;9633;50.980;13.850;2022-08-06T07:07:41;1.53;;;0.60;;
18999;SDS011;9633;50.980;13.850;2022-08-06T07:09:21;2.40;;;0.87;;
18999;SDS011;9633;50.980;13.850;2022-08-06T07:11:16;1.73;;;0.60;;
18999;SDS011;9633;50.980;13.850;2022-08-06T07:12:57;2.80;;;0.80;;
18999;SDS011;9633;50.980;13.850;2022-08-06T07:14:32;2.17;;;0.60;;
18999;SDS011;9633;50.980;13.850;2022-08-06T07:16:08;1.23;;;0.80;;
18999;SDS011;9633;50.980;13.850;2022-08-06T07:18:04;2.10;;;0.60;;
18999;SDS011;9633;50.980;13.850;2022-08-06T07:20:00;1.87;;;0.50;;
18999;SDS011;9633;50.980;13.850;2022-08-06T07:21:39;1.73;;;0.70;;
18999;SDS011;9633;50.980;13.850;2022-08-06T07:23:22;1.30;;;0.77;;
18999;SDS011;9633;50.980;13.850;2022-08-06T07:25:16;1.10;;;0.60;;
18999;SDS011;9633;50.980;13.850;2022-08-06T07:26:56;0.73;;;0.60;;
18999;SDS011;9633;50.980;13.850;2022-08-06T07:28:33;1.90;;;0.60;;
18999;SDS011;9633;50.980;13.850;2022-08-06T07:30:09;2.93;;;0.97;;
18999;SDS011;9633;50.980;13.850;2022-08-06T07:31:44;0.80;;;0.60;;
18999;SDS011;9633;50.980;13.850;2022-08-06T07:33:24;0.97;;;0.60;;
18999;SDS011;9633;50.980;13.850;2022-08-06T07:35:13;1.03;;;0.70;;
18999;SDS011;9633;50.980;13.850;2022-08-06T07:36:51;3.60;;;0.70;;
18999;SDS011;9633;50.980;13.850;2022-08-06T07:38:27;1.03;;;0.60;;
18999;SDS011;9633;50.980;13.850;2022-08-06T07:40:09;2.57;;;0.63;;
18999;SDS011;9633;50.980;13.850;2022-08-06T07:41:47;3.27;;;0.90;;
18999;SDS011;9633;50.980;13.850;2022-08-06T07:43:46;2.17;;;0.67;;
18999;SDS011;9633;50.980;13.850;2022-08-06T07:45:23;2.03;;;0.60;;
18999;SDS011;9633;50.980;13.850;2022-08-06T07:47:02;5.13;;;0.90;;
18999;SDS011;9633;50.980;13.850;2022-08-06T07:48:55;1.53;;;0.83;;
18999;SDS011;9633;50.980;13.850;2022-08-06T07:50:32;1.77;;;0.70;;
18999;SDS011;9633;50.980;13.850;2022-08-06T07:52:06;2.03;;;0.60;;
18999;SDS011;9633;50.980;13.850;2022-08-06T07:53:57;0.60;;;0.60;;
18999;SDS011;9633;50.980;13.850;2022-08-06T07:55:37;1.80;;;0.67;;
18999;SDS011;9633;50.980;13.850;2022-08-06T07:57:11;1.90;;;0.70;;
18999;SDS011;9633;50.980;13.850;2022-08-06T07:58:57;1.73;;;0.70;;
18999;SDS011;9633;50.980;13.850;2022-08-06T08:00:33;1.50;;;1.00;;
18999;SDS011;9633;50.980;13.850;2022-08-06T08:02:09;1.77;;;0.80;;
18999;SDS011;9633;50.980;13.850;2022-08-06T08:03:44;0.90;;;0.80;;
18999;SDS011;9633;50.980;13.850;2022-08-06T08:05:55;2.93;;;1.00;;
18999;SDS011;9633;50.980;13.850;2022-08-06T08:07:47;1.57;;;0.70;;
18999;SDS011;9633;50.980;13.850;2022-08-06T08:09:27;1.60;;;0.90;;
18999;SDS011;9633;50.980;13.850;2022-08-06T08:11:22;2.33;;;1.03;;
18999;SDS011;9633;50.980;13.850;2022-08-06T08:13:17;2.90;;;1.00;;
18999;SDS011;9633;50.980;13.850;2022-08-06T08:15:12;0.97;;;0.63;;
18999;SDS011;9633;50.980;13.850;2022-08-06T08:16:53;2.13;;;0.87;;
18999;SDS011;9633;50.980;13.850;2022-08-06T08:18:29;3.43;;;0.70;;
18999;SDS011;9633;50.980;13.850;2022-08-06T08:20:03;2.53;;;0.70;;
18999;SDS011;9633;50.980;13.850;2022-08-06T08:21:46;2.20;;;0.80;;
18999;SDS011;9633;50.980;13.850;2022-08-06T08:23:20;0.67;;;0.63;;
18999;SDS011;9633;50.980;13.850;2022-08-06T08:25:05;1.40;;;0.70;;
18999;SDS011;9633;50.980;13.850;2022-08-06T08:26:40;1.00;;;0.53;;
18999;SDS011;9633;50.980;13.850;2022-08-06T08:28:33;2.50;;;0.90;;
18999;SDS011;9633;50.980;13.850;2022-08-06T08:30:07;1.23;;;0.60;;
18999;SDS011;9633;50.980;13.850;2022-08-06T08:31:47;2.50;;;0.53;;
18999;SDS011;9633;50.980;13.850;2022-08-06T08:33:30;1.33;;;0.60;;
18999;SDS011;9633;50.980;13.850;2022-08-06T08:35:05;2.13;;;0.80;;
18999;SDS011;9633;50.980;13.850;2022-08-06T08:36:39;1.33;;;0.70;;
18999;SDS011;9633;50.980;13.850;2022-08-06T08:38:13;1.83;;;0.60;;
18999;SDS011;9633;50.980;13.850;2022-08-06T08:39:48;1.93;;;0.80;;
18999;SDS011;9633;50.980;13.850;2022-08-06T08:41:28;2.07;;;0.80;;
18999;SDS011;9633;50.980;13.850;2022-08-06T08:43:21;1.30;;;0.70;;
18999;SDS011;9633;50.980;13.850;2022-08-06T08:45:16;1.77;;;0.60;;
18999;SDS011;9633;50.980;13.850;2022-08-06T08:46:53;0.83;;;0.60;;
18999;SDS011;9633;50.980;13.850;2022-08-06T08:48:29;2.53;;;1.00;;
18999;SDS011;9633;50.980;13.850;2022-08-06T08:50:05;1.47;;;0.70;;
18999;SDS011;9633;50.980;13.850;2022-08-06T08:51:40;1.77;;;0.70;;
18999;SDS011;9633;50.980;13.850;2022-08-06T08:53:22;0.97;;;0.60;;
18999;SDS011;9633;50.980;13.850;2022-08-06T08:55:17;0.50;;;0.40;;
18999;SDS011;9633;50.980;13.850;2022-08-06T08:57:14;0.80;;;0.60;;
18999;SDS011;9633;50.980;13.850;2022-08-06T08:59:08;1.23;;;0.70;;
18999;SDS011;9633;50.980;13.850;2022-08-06T09:01:02;1.00;;;0.67;;
18999;SDS011;9633;50.980;13.850;2022-08-06T09:03:01;4.77;;;0.67;;
18999;SDS011;9633;50.980;13.850;2022-08-06T09:04:37;1.60;;;0.70;;
18999;SDS011;9633;50.980;13.850;2022-08-06T09:06:12;1.53;;;0.80;;
18999;SDS011;9633;50.980;13.850;2022-08-06T09:08:01;5.00;;;0.80;;
18999;SDS011;9633;50.980;13.850;2022-08-06T09:09:36;12.20;;;1.93;;
18999;SDS011;9633;50.980;13.850;2022-08-06T09:11:30;1.07;;;0.50;;
18999;SDS011;9633;50.980;13.850;2022-08-06T09:13:23;1.37;;;0.60;;
18999;SDS011;9633;50.980;13.850;2022-08-06T09:15:16;1.53;;;0.80;;
18999;SDS011;9633;50.980;13.850;2022-08-06T09:16:50;1.03;;;0.60;;
18999;SDS011;9633;50.980;13.850;2022-08-06T09:18:25;1.60;;;0.60;;
18999;SDS011;9633;50.980;13.850;2022-08-06T09:20:00;1.00;;;0.70;;
18999;SDS011;9633;50.980;13.850;2022-08-06T09:21:37;0.90;;;0.50;;
18999;SDS011;9633;50.980;13.850;2022-08-06T09:23:14;1.13;;;0.60;;
18999;SDS011;9633;50.980;13.850;2022-08-06T09:24:49;1.33;;;0.60;;
18999;SDS011;9633;50.980;13.850;2022-08-06T09:26:23;0.70;;;0.50;;
18999;SDS011;9633;50.980;13.850;2022-08-06T09:28:26;2.27;;;0.70;;
18999;SDS011;9633;50.980;13.850;2022-08-06T09:30:06;1.43;;;0.80;;
18999;SDS011;9633;50.980;13.850;2022-08-06T09:32:01;24.57;;;3.10;;
18999;SDS011;9633;50.980;13.850;2022-08-06T09:33:53;4.33;;;1.10;;
18999;SDS011;9633;50.980;13.850;2022-08-06T09:35:56;0.77;;;0.57;;
18999;SDS011;9633;50.980;13.850;2022-08-06T09:37:31;1.73;;;0.60;;
18999;SDS011;9633;50.980;13.850;2022-08-06T09:39:30;23.97;;;2.17;;
18999;SDS011;9633;50.980;13.850;2022-08-06T09:41:27;2.77;;;0.73;;
18999;SDS011;9633;50.980;13.850;2022-08-06T09:43:01;1.60;;;1.03;;
18999;SDS011;9633;50.980;13.850;2022-08-06T09:44:35;2.00;;;0.70;;
18999;SDS011;9633;50.980;13.850;2022-08-06T09:46:12;2.83;;;0.60;;
18999;SDS011;9633;50.980;13.850;2022-08-06T09:47:48;1.07;;;0.50;;
18999;SDS011;9633;50.980;13.850;2022-08-06T09:49:43;2.30;;;0.50;;
18999;SDS011;9633;50.980;13.850;2022-08-06T09:51:31;0.63;;;0.60;;
18999;SDS011;9633;50.980;13.850;2022-08-06T09:53:22;1.70;;;0.40;;
18999;SDS011;9633;50.980;13.850;2022-08-06T09:54:56;0.70;;;0.50;;
18999;SDS011;9633;50.980;13.850;2022-08-06T09:56:31;1.20;;;0.50;;
18999;SDS011;9633;50.980;13.850;2022-08-06T09:58:05;2.07;;;0.60;;
18999;SDS011;9633;50.980;13.850;2022-08-06T09:59:43;1.43;;;0.60;;
18999;SDS011;9633;50.980;13.850;2022-08-06T10:01:21;1.33;;;0.60;;
18999;SDS011;9633;50.980;13.850;2022-08-06T10:02:58;2.00;;;0.70;;
18999;SDS011;9633;50.980;13.850;2022-08-06T10:04:53;2.20;;;0.60;;
18999;SDS011;9633;50.980;13.850;2022-08-06T10:06:28;1.87;;;0.57;;
18999;SDS011;9633;50.980;13.850;2022-08-06T10:08:02;0.87;;;0.40;;
18999;SDS011;9633;50.980;13.850;2022-08-06T10:09:51;1.50;;;0.40;;
18999;SDS011;9633;50.980;13.850;2022-08-06T10:11:32;2.73;;;0.80;;
18999;SDS011;9633;50.980;13.850;2022-08-06T10:13:13;1.23;;;0.50;;
18999;SDS011;9633;50.980;13.850;2022-08-06T10:14:50;2.20;;;0.50;;
18999;SDS011;9633;50.980;13.850;2022-08-06T10:16:26;0.50;;;0.40;;
18999;SDS011;9633;50.980;13.850;2022-08-06T10:18:01;0.90;;;0.60;;
18999;SDS011;9633;50.980;13.850;2022-08-06T10:19:34;0.70;;;0.50;;
18999;SDS011;9633;50.980;13.850;2022-08-06T10:21:10;10.80;;;1.00;;